Time;durP1;ratioP1;P1;durP2;ratioP2;P2;SDS_P1;SDS_P2;PMS_P1;PMS_P2;Temp;Humidity;BMP_temperature;BMP_pressure;BME280_temperature;BME280_humidity;BME280_pressure;Samples;Min_cycle;Max_cycle;Signal;HPM_P1;HPM_P2
2021/10/23 00:00:51;;;;;;;13.90;8.60;;;;;;;15.80;65.38;100884.34;1695515;84;21074;-54
2021/10/23 00:03:20;;;;;;;14.93;8.10;;;;;;;15.80;65.53;100891.11;1682564;83;21013;-55
2021/10/23 00:05:48;;;;;;;13.83;8.70;;;;;;;15.82;65.55;100891.93;1644468;85;21071;-54
2021/10/23 00:08:14;;;;;;;12.05;8.13;;;;;;;15.80;65.48;100893.81;1652412;85;21576;-54
2021/10/23 00:10:41;;;;;;;13.30;8.90;;;;;;;15.79;65.67;100894.77;1657380;84;21055;-54
2021/10/23 00:13:09;;;;;;;16.20;8.55;;;;;;;15.80;65.76;100883.00;1621216;86;21147;-55
2021/10/23 00:15:37;;;;;;;14.78;8.48;;;;;;;15.83;65.71;100884.20;1682758;83;21379;-56
2021/10/23 00:18:04;;;;;;;11.75;7.42;;;;;;;15.84;65.74;100890.86;1653907;86;21055;-55
2021/10/23 00:20:31;;;;;;;14.25;8.15;;;;;;;15.89;65.68;100885.25;1677124;85;21088;-55
2021/10/23 00:22:58;;;;;;;17.52;9.08;;;;;;;15.92;65.53;100879.66;1680173;83;21773;-55
2021/10/23 00:25:26;;;;;;;15.23;9.25;;;;;;;15.93;65.46;100886.81;1677442;85;21131;-54
2021/10/23 00:27:55;;;;;;;16.37;8.63;;;;;;;15.93;65.39;100880.05;1682748;85;21051;-53
2021/10/23 00:30:23;;;;;;;15.10;8.55;;;;;;;15.93;65.45;100876.00;1675320;83;21029;-52
2021/10/23 00:32:51;;;;;;;15.98;8.48;;;;;;;15.94;65.40;100870.98;1693970;83;21814;-55
2021/10/23 00:35:18;;;;;;;19.87;9.15;;;;;;;15.93;65.35;100876.00;1718061;82;21108;-55
2021/10/23 00:37:45;;;;;;;17.73;9.73;;;;;;;15.91;65.41;100879.27;1670072;83;21129;-55
2021/10/23 00:40:12;;;;;;;17.32;9.00;;;;;;;15.89;65.39;100877.14;1630699;86;21130;-55
2021/10/23 00:42:40;;;;;;;16.25;8.28;;;;;;;15.89;65.58;100883.40;1678146;85;21067;-54
2021/10/23 00:45:08;;;;;;;16.40;8.28;;;;;;;15.88;65.49;100886.17;1674101;85;21092;-55
2021/10/23 00:47:37;;;;;;;20.97;8.88;;;;;;;15.86;65.48;100875.92;1679742;83;21643;-55
2021/10/23 00:50:05;;;;;;;11.25;7.62;;;;;;;15.86;65.40;100879.98;1687586;83;21134;-55
2021/10/23 00:52:32;;;;;;;12.93;8.03;;;;;;;15.84;65.40;100880.05;1680342;85;21081;-55
2021/10/23 00:54:59;;;;;;;16.70;7.95;;;;;;;15.87;65.49;100873.61;1676111;85;21028;-59
2021/10/23 00:57:26;;;;;;;14.55;7.92;;;;;;;15.90;65.37;100868.06;1667914;85;21045;-58
2021/10/23 00:59:53;;;;;;;16.95;7.97;;;;;;;15.93;65.25;100865.69;1678180;83;21084;-58
2021/10/23 01:02:21;;;;;;;10.90;7.47;;;;;;;15.98;65.07;100868.50;1689631;83;21222;-55
2021/10/23 01:04:48;;;;;;;14.60;7.42;;;;;;;16.00;64.99;100866.58;1677045;85;21091;-53
2021/10/23 01:07:16;;;;;;;12.90;7.35;;;;;;;16.07;64.82;100864.91;1684377;83;21605;-55
2021/10/23 01:09:45;;;;;;;13.70;7.75;;;;;;;16.13;64.55;100867.25;1682744;82;21323;-55
2021/10/23 01:12:13;;;;;;;17.30;7.87;;;;;;;16.15;64.33;100863.52;1684768;83;21135;-59
2021/10/23 01:14:41;;;;;;;12.33;7.83;;;;;;;16.18;64.23;100862.45;1677875;85;21525;-59
2021/10/23 01:17:09;;;;;;;19.42;7.67;;;;;;;16.17;64.06;100865.65;1657998;85;21097;-55
2021/10/23 01:19:38;;;;;;;16.05;7.58;;;;;;;16.18;64.17;100861.98;1638766;85;21351;-59
2021/10/23 01:22:05;;;;;;;18.60;7.55;;;;;;;16.26;63.95;100866.95;1659354;85;21566;-60
2021/10/23 01:24:32;;;;;;;13.80;7.47;;;;;;;16.30;63.80;100863.11;1650490;84;21124;-60
2021/10/23 01:26:59;;;;;;;13.85;7.08;;;;;;;16.32;63.69;100858.48;1614690;86;21220;-58
2021/10/23 01:29:26;;;;;;;11.15;7.25;;;;;;;16.39;63.48;100856.30;1644018;87;21425;-59
2021/10/23 01:31:53;;;;;;;16.17;7.10;;;;;;;16.44;63.21;100854.20;1651868;85;21381;-59
2021/10/23 01:34:26;;;;;;;9.20;6.15;;;;;;;16.49;62.91;100859.81;1628309;86;21072;-58
2021/10/23 01:36:56;;;;;;;9.98;5.97;;;;;;;16.50;62.68;100853.44;1631025;87;21019;-58
2021/10/23 01:39:24;;;;;;;14.35;6.83;;;;;;;16.51;62.48;100856.53;1620014;86;21416;-59
2021/10/23 01:41:52;;;;;;;18.02;6.85;;;;;;;16.52;62.37;100866.39;1634294;85;21632;-58
2021/10/23 01:44:26;;;;;;;22.77;7.45;;;;;;;16.54;62.24;100868.06;1650881;85;21080;-59
2021/10/23 01:46:54;;;;;;;28.53;7.40;;;;;;;16.57;62.14;100865.17;1687083;84;21052;-59
2021/10/23 01:49:21;;;;;;;22.93;6.60;;;;;;;16.57;61.94;100868.34;1694975;84;21049;-59
2021/10/23 01:51:48;;;;;;;20.85;7.50;;;;;;;16.54;61.95;100862.65;1691567;83;22017;-58
2021/10/23 01:54:15;;;;;;;23.75;7.72;;;;;;;16.52;61.97;100856.45;1692892;83;21116;-58
2021/10/23 01:56:42;;;;;;;20.30;7.47;;;;;;;16.49;62.01;100866.11;1669209;83;21135;-59
2021/10/23 01:59:09;;;;;;;21.82;6.62;;;;;;;16.46;61.96;100870.32;1689110;84;21161;-59
2021/10/23 02:01:36;;;;;;;16.25;7.37;;;;;;;16.39;62.09;100880.66;1681781;84;20992;-59
2021/10/23 02:04:04;;;;;;;21.75;7.33;;;;;;;16.33;62.20;100884.58;1684110;84;21889;-59
2021/10/23 02:06:31;;;;;;;29.70;7.55;;;;;;;16.29;62.38;100904.66;1685215;84;21383;-59
2021/10/23 02:09:01;;;;;;;30.50;6.62;;;;;;;16.31;62.38;100906.79;1682754;84;21880;-58
2021/10/23 02:11:29;;;;;;;30.12;7.65;;;;;;;16.31;62.26;100902.73;1689047;85;21058;-59
2021/10/23 02:13:56;;;;;;;32.67;7.83;;;;;;;16.29;62.22;100897.89;1687720;84;21085;-58
2021/10/23 02:16:24;;;;;;;39.10;8.10;;;;;;;16.28;62.06;100890.73;1683095;84;21152;-59
2021/10/23 02:18:52;;;;;;;34.33;7.97;;;;;;;16.22;62.08;100895.12;1685060;84;21070;-59
2021/10/23 02:21:19;;;;;;;40.85;9.38;;;;;;;16.20;61.98;100894.83;1688690;85;20988;-58
2021/10/23 02:23:47;;;;;;;42.00;9.10;;;;;;;16.19;62.03;100900.70;1682587;84;21108;-60
2021/10/23 02:26:13;;;;;;;34.58;9.20;;;;;;;16.15;62.11;100901.84;1687809;84;21409;-59
2021/10/23 02:28:41;;;;;;;34.33;9.15;;;;;;;16.15;62.32;100907.25;1684500;84;21125;-58
2021/10/23 02:31:08;;;;;;;34.40;8.70;;;;;;;16.18;62.18;100904.38;1687198;84;21006;-58
2021/10/23 02:33:36;;;;;;;38.65;14.00;;;;;;;16.20;62.22;100907.86;1687139;84;20951;-60
2021/10/23 02:36:04;;;;;;;41.40;18.25;;;;;;;16.22;62.25;100916.76;1680812;85;21109;-59
2021/10/23 02:38:31;;;;;;;53.40;21.82;;;;;;;16.24;62.09;100912.13;1685016;83;21531;-59
2021/10/23 02:40:58;;;;;;;40.38;17.50;;;;;;;16.24;62.08;100913.48;1673049;85;21133;-58
2021/10/23 02:43:26;;;;;;;33.73;18.90;;;;;;;16.28;61.88;100911.02;1671149;85;21535;-59
2021/10/23 02:45:53;;;;;;;31.07;14.45;;;;;;;16.34;61.60;100917.90;1666840;84;21156;-55
2021/10/23 02:48:20;;;;;;;20.10;11.35;;;;;;;16.39;61.37;100920.35;1649161;85;21100;-55
2021/10/23 02:50:47;;;;;;;22.20;11.53;;;;;;;16.38;61.42;100924.91;1662504;84;21127;-54
2021/10/23 02:53:14;;;;;;;31.12;12.40;;;;;;;16.37;61.24;100916.86;1626889;86;21882;-54
2021/10/23 02:55:42;;;;;;;16.87;9.58;;;;;;;16.41;61.29;100921.13;1670217;85;21498;-56
2021/10/23 02:58:09;;;;;;;15.83;8.08;;;;;;;16.49;61.18;100924.30;1673189;85;21037;-54
2021/10/23 03:00:36;;;;;;;14.18;7.30;;;;;;;16.58;60.61;100915.63;1659316;85;20965;-56
2021/10/23 03:03:03;;;;;;;15.35;6.87;;;;;;;16.58;60.06;100914.78;1657143;85;21088;-56
2021/10/23 03:05:31;;;;;;;15.93;7.33;;;;;;;16.49;59.82;100908.06;1672665;85;21491;-55
2021/10/23 03:07:58;;;;;;;19.37;6.87;;;;;;;16.43;59.97;100907.03;1623223;86;21088;-54
2021/10/23 03:10:27;;;;;;;15.72;7.67;;;;;;;16.33;59.66;100912.98;1652140;85;22146;-54
2021/10/23 03:12:53;;;;;;;23.02;7.00;;;;;;;16.34;60.15;100916.55;1654029;85;21403;-54
2021/10/23 03:15:21;;;;;;;17.85;7.08;;;;;;;16.42;60.10;100912.95;1683739;85;20995;-55
2021/10/23 03:17:48;;;;;;;14.45;7.05;;;;;;;16.42;60.06;100915.65;1647792;86;21189;-54
2021/10/23 03:20:15;;;;;;;19.87;6.90;;;;;;;16.41;59.83;100915.72;1644220;85;21518;-56
2021/10/23 03:22:44;;;;;;;16.17;6.37;;;;;;;16.44;59.75;100916.43;1623160;86;21110;-54
2021/10/23 03:25:10;;;;;;;15.75;6.58;;;;;;;16.46;59.67;100911.80;1656592;85;21109;-55
2021/10/23 03:27:38;;;;;;;15.75;6.80;;;;;;;16.46;59.66;100905.50;1662202;85;20965;-55
2021/10/23 03:30:06;;;;;;;25.17;7.58;;;;;;;16.47;59.50;100901.87;1651597;86;21602;-55
2021/10/23 03:32:34;;;;;;;20.02;7.33;;;;;;;16.45;59.24;100906.46;1649563;85;21024;-56
2021/10/23 03:35:02;;;;;;;16.70;6.55;;;;;;;16.43;59.29;100902.97;1644777;85;21068;-54
2021/10/23 03:37:30;;;;;;;14.65;6.75;;;;;;;16.46;59.10;100908.20;1649036;87;21040;-54
2021/10/23 03:39:58;;;;;;;13.80;6.17;;;;;;;16.52;59.18;100915.11;1648484;85;21489;-55
2021/10/23 03:42:26;;;;;;;18.73;7.00;;;;;;;16.53;59.28;100912.33;1643241;86;21799;-55
2021/10/23 03:44:53;;;;;;;14.58;6.65;;;;;;;16.51;59.12;100915.61;1645690;84;21616;-55
2021/10/23 03:47:20;;;;;;;27.07;7.20;;;;;;;16.45;58.79;100909.17;1689790;83;21998;-55
2021/10/23 03:49:48;;;;;;;15.72;6.70;;;;;;;16.41;58.66;100909.84;1666089;85;21014;-54
2021/10/23 03:52:15;;;;;;;16.15;6.30;;;;;;;16.46;58.73;100906.85;1666930;85;21101;-54
2021/10/23 03:54:42;;;;;;;16.60;7.58;;;;;;;16.53;58.74;100910.97;1667746;85;21594;-55
2021/10/23 03:57:09;;;;;;;19.40;7.10;;;;;;;16.56;58.86;100914.85;1682815;85;21093;-55
2021/10/23 03:59:36;;;;;;;21.45;6.95;;;;;;;16.63;58.86;100915.37;1688995;83;21005;-56
2021/10/23 04:02:03;;;;;;;15.58;7.15;;;;;;;16.69;58.33;100919.53;1687486;83;21177;-55
2021/10/23 04:04:31;;;;;;;18.85;7.80;;;;;;;16.64;58.12;100916.23;1687798;83;21116;-55
2021/10/23 04:06:58;;;;;;;16.80;7.05;;;;;;;16.59;58.03;100917.38;1687029;83;22378;-55
2021/10/23 04:09:24;;;;;;;14.58;7.08;;;;;;;16.60;57.75;100919.13;1657974;85;21128;-54
2021/10/23 04:11:51;;;;;;;16.90;7.15;;;;;;;16.56;57.87;100922.97;1678207;83;22158;-55
2021/10/23 04:14:18;;;;;;;15.75;7.50;;;;;;;16.50;58.00;100920.63;1647962;85;21156;-54
2021/10/23 04:16:47;;;;;;;15.72;6.53;;;;;;;16.42;58.39;100937.77;1664953;85;21096;-54
2021/10/23 04:19:14;;;;;;;14.38;6.53;;;;;;;16.35;58.80;100943.14;1682470;85;21137;-58
2021/10/23 04:21:42;;;;;;;22.02;6.95;;;;;;;16.32;59.03;100943.70;1692489;83;21156;-58
2021/10/23 04:24:10;;;;;;;17.27;6.30;;;;;;;16.33;58.71;100946.80;1687711;83;21562;-59
2021/10/23 04:26:38;;;;;;;14.98;6.37;;;;;;;16.31;58.52;100948.72;1684246;83;21056;-59
2021/10/23 04:29:05;;;;;;;15.70;7.15;;;;;;;16.28;58.03;100957.02;1686502;84;21564;-59
2021/10/23 04:31:33;;;;;;;15.58;6.78;;;;;;;16.27;57.90;100955.27;1689428;84;21611;-59
2021/10/23 04:34:03;;;;;;;15.90;7.42;;;;;;;16.25;57.76;100959.90;1668656;83;21454;-60
2021/10/23 04:36:31;;;;;;;13.20;7.22;;;;;;;16.21;58.02;100961.00;1689087;83;21533;-59
2021/10/23 04:38:58;;;;;;;17.27;6.87;;;;;;;16.18;58.09;100967.47;1687231;85;21050;-59
2021/10/23 04:41:24;;;;;;;15.90;6.60;;;;;;;16.18;58.28;100966.13;1698973;84;21617;-60
2021/10/23 04:43:51;;;;;;;18.67;7.45;;;;;;;16.18;58.60;100964.77;1707414;83;21474;-60
2021/10/23 04:46:19;;;;;;;18.32;7.05;;;;;;;16.18;58.14;100958.47;1706894;83;21037;-60
2021/10/23 04:48:46;;;;;;;14.95;7.33;;;;;;;16.16;58.35;100956.33;1706333;83;21064;-60
2021/10/23 04:51:14;;;;;;;17.07;7.42;;;;;;;16.19;58.29;100956.16;1700832;83;21087;-59
2021/10/23 04:53:41;;;;;;;21.05;7.87;;;;;;;16.27;57.95;100949.86;1699579;84;21072;-60
2021/10/23 04:56:08;;;;;;;20.20;7.53;;;;;;;16.35;57.68;100952.61;1707109;83;21015;-59
2021/10/23 04:58:42;;;;;;;13.83;6.62;;;;;;;16.39;57.75;100960.94;1702436;83;21049;-59
2021/10/23 05:01:06;;;;;;;16.90;7.35;;;;;;;16.43;58.41;100959.80;1701797;84;21036;-60
2021/10/23 05:03:33;;;;;;;12.58;7.12;;;;;;;16.47;58.83;100958.69;1694459;83;20956;-59
2021/10/23 05:05:59;;;;;;;13.28;7.08;;;;;;;16.50;58.99;100968.45;1687614;83;20992;-58
2021/10/23 05:08:27;;;;;;;14.25;7.20;;;;;;;16.54;58.90;100965.49;1692054;83;21091;-59
2021/10/23 05:10:55;;;;;;;19.73;8.05;;;;;;;16.54;58.49;100970.91;1686828;83;21040;-59
2021/10/23 05:13:22;;;;;;;16.35;8.08;;;;;;;16.50;58.79;100973.40;1688043;84;21096;-59
2021/10/23 05:15:51;;;;;;;22.77;8.58;;;;;;;16.43;59.20;100985.05;1688762;83;21569;-59
2021/10/23 05:18:18;;;;;;;20.77;8.48;;;;;;;16.40;59.76;100992.45;1691603;83;21133;-60
2021/10/23 05:20:46;;;;;;;24.20;9.53;;;;;;;16.36;60.00;100993.59;1694093;83;21096;-60
2021/10/23 05:23:13;;;;;;;24.47;9.45;;;;;;;16.32;60.22;100996.47;1687378;84;21121;-59
2021/10/23 05:25:40;;;;;;;22.98;9.65;;;;;;;16.26;60.35;100996.81;1690303;83;21348;-59
2021/10/23 05:28:07;;;;;;;19.95;9.73;;;;;;;16.20;60.69;100998.48;1688367;84;21297;-59
2021/10/23 05:30:34;;;;;;;22.55;9.50;;;;;;;16.21;60.85;101004.78;1690445;84;21070;-60
2021/10/23 05:33:01;;;;;;;18.92;8.30;;;;;;;16.17;61.15;101000.00;1690344;83;21066;-59
2021/10/23 05:35:29;;;;;;;14.73;7.72;;;;;;;16.08;61.59;101008.63;1687684;83;21009;-59
2021/10/23 05:37:55;;;;;;;13.25;8.33;;;;;;;15.93;62.04;101007.63;1687774;85;21561;-59
2021/10/23 05:40:23;;;;;;;12.88;7.85;;;;;;;15.79;62.58;101011.01;1687805;83;20965;-59
2021/10/23 05:42:50;;;;;;;14.33;8.48;;;;;;;15.66;62.99;101017.08;1689803;84;21040;-58
2021/10/23 05:45:17;;;;;;;21.33;9.30;;;;;;;15.63;63.19;101011.84;1684480;84;21641;-60
2021/10/23 05:47:44;;;;;;;17.73;9.25;;;;;;;15.60;63.12;101014.70;1635940;86;21017;-59
2021/10/23 05:50:12;;;;;;;27.32;9.13;;;;;;;15.53;63.18;101024.95;1632444;86;21037;-59
2021/10/23 05:52:40;;;;;;;26.02;9.65;;;;;;;15.55;62.57;101025.74;1644353;86;21041;-59
2021/10/23 05:55:08;;;;;;;21.57;8.60;;;;;;;15.59;62.07;101029.17;1639450;85;21104;-60
2021/10/23 05:57:37;;;;;;;23.02;10.28;;;;;;;15.63;61.61;101036.16;1660215;85;22356;-58
2021/10/23 06:00:07;;;;;;;27.17;13.03;;;;;;;15.68;61.85;101042.66;1624688;87;21124;-59
2021/10/23 06:02:38;;;;;;;37.20;13.83;;;;;;;15.74;61.82;101047.77;1620490;86;21079;-60
2021/10/23 06:05:07;;;;;;;23.65;10.30;;;;;;;15.76;62.04;101050.77;1647649;86;37799;-60
2021/10/23 06:07:38;;;;;;;25.40;10.13;;;;;;;15.76;61.72;101050.77;1686803;85;20945;-60
2021/10/23 06:10:09;;;;;;;21.12;9.43;;;;;;;15.72;61.06;101057.79;1680849;85;21101;-59
2021/10/23 06:12:36;;;;;;;19.12;9.50;;;;;;;15.66;60.46;101055.38;1688060;85;21422;-59
2021/10/23 06:15:07;;;;;;;17.50;8.70;;;;;;;15.64;60.12;101054.13;1687397;85;21446;-59
2021/10/23 06:17:36;;;;;;;17.87;8.53;;;;;;;15.66;59.80;101052.67;1686228;85;21020;-60
2021/10/23 06:20:06;;;;;;;14.23;9.20;;;;;;;15.66;59.51;101053.56;1684107;85;21128;-60
2021/10/23 06:22:33;;;;;;;23.75;10.95;;;;;;;15.69;59.16;101051.16;1625574;87;21088;-61
2021/10/23 06:25:02;;;;;;;24.60;12.73;;;;;;;15.80;58.99;101051.49;1657230;86;21125;-60
2021/10/23 06:27:29;;;;;;;31.90;16.52;;;;;;;15.85;58.33;101053.97;1642347;85;21013;-59
2021/10/23 06:29:56;;;;;;;25.35;12.43;;;;;;;15.93;58.22;101052.25;1620540;86;21125;-60
2021/10/23 06:32:23;;;;;;;22.80;9.93;;;;;;;15.97;57.47;101061.45;1655272;85;21501;-60
2021/10/23 06:34:50;;;;;;;23.52;9.80;;;;;;;15.93;56.46;101061.22;1637552;86;21148;-59
2021/10/23 06:37:19;;;;;;;32.23;15.88;;;;;;;15.92;55.78;101054.06;1648000;86;21095;-60
2021/10/23 06:39:46;;;;;;;33.45;15.98;;;;;;;15.94;54.34;101060.27;1652545;85;21052;-59
2021/10/23 06:42:14;;;;;;;28.35;13.13;;;;;;;15.93;54.32;101070.68;1657437;86;21096;-59
2021/10/23 06:44:41;;;;;;;26.10;11.18;;;;;;;15.92;56.54;101074.34;1657903;86;21528;-60
2021/10/23 06:47:10;;;;;;;24.92;10.45;;;;;;;15.78;57.03;101074.14;1702408;83;21039;-60
2021/10/23 06:49:37;;;;;;;30.35;11.03;;;;;;;15.60;57.13;101077.72;1681987;84;21426;-59
2021/10/23 06:52:05;;;;;;;20.77;10.70;;;;;;;15.56;57.86;101084.24;1688059;83;21101;-59
2021/10/23 06:54:32;;;;;;;24.05;10.95;;;;;;;15.49;59.86;101084.63;1683212;83;21460;-60
2021/10/23 06:57:00;;;;;;;24.70;11.57;;;;;;;15.35;60.74;101085.32;1687032;83;21119;-59
2021/10/23 06:59:27;;;;;;;22.87;11.43;;;;;;;15.26;61.35;101089.35;1689198;83;21618;-60
2021/10/23 07:01:54;;;;;;;24.95;12.45;;;;;;;15.18;62.20;101100.53;1691450;83;21073;-61
2021/10/23 07:04:22;;;;;;;25.60;11.73;;;;;;;15.12;62.80;101100.83;1680968;83;21102;-58
2021/10/23 07:06:49;;;;;;;24.43;12.00;;;;;;;15.07;63.19;101103.75;1691288;83;21126;-59
2021/10/23 07:09:18;;;;;;;23.55;11.88;;;;;;;15.01;63.63;101108.96;1682805;83;21636;-59
2021/10/23 07:11:47;;;;;;;26.55;11.78;;;;;;;14.97;64.26;101122.70;1655147;84;21060;-60
2021/10/23 07:14:14;;;;;;;22.37;10.98;;;;;;;14.93;64.16;101131.91;1686567;83;21722;-59
2021/10/23 07:16:42;;;;;;;21.40;10.58;;;;;;;14.86;64.65;101138.92;1688769;83;21071;-59
2021/10/23 07:19:11;;;;;;;22.45;10.93;;;;;;;14.82;64.79;101141.36;1683558;83;21600;-58
2021/10/23 07:21:40;;;;;;;24.57;10.72;;;;;;;14.77;65.08;101143.41;1686841;83;22136;-59
2021/10/23 07:24:07;;;;;;;21.37;10.75;;;;;;;14.71;65.22;101147.27;1685841;83;21108;-60
2021/10/23 07:26:35;;;;;;;20.05;10.45;;;;;;;14.72;65.42;101145.45;1682153;84;21063;-59
2021/10/23 07:29:03;;;;;;;22.27;10.55;;;;;;;14.77;65.34;101152.86;1658018;84;21132;-59
2021/10/23 07:31:30;;;;;;;25.62;11.93;;;;;;;14.77;65.52;101147.46;1682441;84;21586;-59
2021/10/23 07:33:57;;;;;;;24.57;11.08;;;;;;;14.79;65.05;101157.70;1682027;83;21075;-60
2021/10/23 07:36:24;;;;;;;25.88;10.53;;;;;;;14.71;66.18;101149.10;1684110;83;21141;-60
2021/10/23 07:38:51;;;;;;;19.37;10.23;;;;;;;14.57;66.94;101155.96;1680791;83;21214;-60
2021/10/23 07:41:18;;;;;;;23.40;11.30;;;;;;;14.47;67.48;101161.35;1657138;85;21064;-58
2021/10/23 07:43:45;;;;;;;23.50;10.65;;;;;;;14.36;68.47;101155.58;1686882;83;21112;-60
2021/10/23 07:46:14;;;;;;;25.68;9.83;;;;;;;14.22;68.58;101162.45;1686390;83;21095;-60
2021/10/23 07:48:42;;;;;;;16.52;8.53;;;;;;;14.14;69.47;101160.56;1685095;83;21561;-60
2021/10/23 07:51:10;;;;;;;26.73;9.90;;;;;;;14.11;70.11;101162.05;1655465;84;21551;-61
2021/10/23 07:53:37;;;;;;;31.07;11.03;;;;;;;14.08;70.42;101169.79;1651015;84;21186;-60
2021/10/23 07:56:05;;;;;;;24.60;11.83;;;;;;;14.04;71.01;101175.80;1684727;83;21107;-58
2021/10/23 07:58:32;;;;;;;21.95;10.28;;;;;;;14.00;71.33;101174.64;1683178;83;21589;-58
2021/10/23 08:00:59;;;;;;;18.75;10.10;;;;;;;13.99;71.49;101173.75;1654983;84;21151;-60
2021/10/23 08:03:26;;;;;;;20.75;9.68;;;;;;;14.00;71.42;101171.95;1688100;83;21138;-59
2021/10/23 08:05:53;;;;;;;21.48;9.45;;;;;;;13.99;71.86;101173.75;1681849;83;21056;-59
2021/10/23 08:08:20;;;;;;;18.32;8.25;;;;;;;13.99;72.58;101166.16;1682621;83;21610;-60
2021/10/23 08:10:48;;;;;;;14.60;7.97;;;;;;;14.00;73.12;101166.07;1682713;83;21123;-59
2021/10/23 08:13:17;;;;;;;15.75;7.40;;;;;;;14.00;73.09;101157.98;1681028;83;21956;-59
2021/10/23 08:15:46;;;;;;;16.07;7.35;;;;;;;14.00;73.22;101158.47;1687766;83;21017;-59
2021/10/23 08:18:13;;;;;;;17.65;8.45;;;;;;;13.94;72.95;101155.56;1685254;83;21060;-59
2021/10/23 08:20:42;;;;;;;20.35;8.05;;;;;;;13.93;73.44;101151.60;1669053;84;21068;-60
2021/10/23 08:23:09;;;;;;;44.88;11.55;;;;;;;14.00;74.00;101163.38;1687032;83;21630;-59
2021/10/23 08:25:36;;;;;;;38.98;12.07;;;;;;;14.08;73.85;101173.83;1686987;83;21155;-59
2021/10/23 08:28:04;;;;;;;31.00;11.33;;;;;;;14.10;74.14;101171.08;1678714;83;21252;-60
2021/10/23 08:30:31;;;;;;;45.92;12.05;;;;;;;14.17;75.00;101168.52;1683284;83;21650;-61
2021/10/23 08:33:01;;;;;;;57.85;12.85;;;;;;;14.25;75.46;101170.39;1681962;83;21114;-59
2021/10/23 08:35:28;;;;;;;40.55;12.82;;;;;;;14.35;74.62;101175.41;1686241;83;21565;-61
2021/10/23 08:37:55;;;;;;;42.43;10.98;;;;;;;14.42;74.56;101173.72;1686094;83;21512;-59
2021/10/23 08:40:24;;;;;;;28.52;9.83;;;;;;;14.46;74.07;101169.94;1656890;84;21103;-60
2021/10/23 08:42:52;;;;;;;25.62;10.10;;;;;;;14.49;73.74;101166.23;1683909;83;21079;-61
2021/10/23 08:45:21;;;;;;;25.17;10.60;;;;;;;14.56;74.00;101174.45;1688297;84;21064;-61
2021/10/23 08:47:49;;;;;;;24.57;9.60;;;;;;;14.65;73.98;101174.96;1685006;83;21121;-60
2021/10/23 08:50:21;;;;;;;30.40;12.85;;;;;;;14.72;74.20;101187.28;1688442;83;21099;-58
2021/10/23 08:52:49;;;;;;;31.12;12.60;;;;;;;14.82;75.01;101195.35;1693318;83;21536;-61
2021/10/23 08:55:17;;;;;;;32.67;11.80;;;;;;;14.84;75.53;101194.80;1697413;83;21098;-60
2021/10/23 08:57:46;;;;;;;28.20;10.50;;;;;;;14.86;76.29;101192.91;1691260;83;21540;-61
2021/10/23 09:00:15;;;;;;;37.28;10.65;;;;;;;14.92;76.65;101197.61;1691766;83;21048;-61
2021/10/23 09:02:42;;;;;;;28.55;11.33;;;;;;;14.97;77.24;101199.66;1662592;84;21494;-62
2021/10/23 09:05:11;;;;;;;27.25;10.98;;;;;;;15.02;77.61;101201.16;1693365;83;21645;-68
2021/10/23 09:07:47;;;;;;;30.52;11.68;;;;;;;15.14;78.45;101202.91;1686470;83;21036;-62
2021/10/23 09:10:30;;;;;;;25.55;10.75;;;;;;;15.25;78.72;101192.95;1690737;83;21518;-63
2021/10/23 09:13:06;;;;;;;24.23;10.60;;;;;;;15.33;78.81;101200.20;1691743;83;21119;-65
2021/10/23 09:15:42;;;;;;;22.20;11.03;;;;;;;15.37;78.27;101196.42;1695145;83;21104;-66
2021/10/23 09:18:09;;;;;;;28.20;11.57;;;;;;;15.36;78.30;101205.45;1690100;83;21056;-63
2021/10/23 09:20:40;;;;;;;24.40;11.78;;;;;;;15.30;78.42;101197.64;1677482;84;21119;-62
2021/10/23 09:23:18;;;;;;;24.75;10.78;;;;;;;15.29;78.93;101191.84;1655750;84;21144;-62
2021/10/23 09:25:46;;;;;;;27.37;11.28;;;;;;;15.35;79.31;101188.84;1686714;83;21048;-61
2021/10/23 09:28:16;;;;;;;26.48;10.90;;;;;;;15.45;78.80;101191.97;1696066;83;21657;-69
2021/10/23 09:30:50;;;;;;;29.70;11.28;;;;;;;15.48;78.51;101186.45;1658071;84;21453;-65
2021/10/23 09:33:25;;;;;;;20.72;11.75;;;;;;;15.50;78.47;101181.84;1670556;84;21554;-63
2021/10/23 09:35:59;;;;;;;30.30;15.90;;;;;;;15.53;78.75;101178.09;1662345;84;21776;-60
2021/10/23 09:38:33;;;;;;;27.77;12.10;;;;;;;15.59;79.04;101169.70;1663099;84;21075;-66
2021/10/23 09:41:25;;;;;;;19.80;9.25;;;;;;;15.68;78.43;101167.88;1644064;85;22265;-66
2021/10/23 09:43:47;;;;;;;20.55;8.75;;;;;;;15.84;77.53;101175.23;1686518;83;21628;-62
2021/10/23 09:46:21;;;;;;;19.48;9.58;;;;;;;16.01;76.54;101168.50;1689662;83;21072;-63
2021/10/23 09:48:51;;;;;;;21.30;9.40;;;;;;;16.17;76.02;101169.06;1658074;84;21132;-63
2021/10/23 09:51:32;;;;;;;19.92;8.35;;;;;;;16.33;75.14;101174.08;1656736;85;21673;-63
2021/10/23 09:54:01;;;;;;;13.93;6.95;;;;;;;16.43;74.18;101164.11;1656366;85;21112;-63
2021/10/23 09:56:37;;;;;;;16.40;8.58;;;;;;;16.55;73.22;101167.53;1627300;86;21565;-65
2021/10/23 09:59:13;;;;;;;17.75;8.68;;;;;;;16.71;72.29;101170.77;1626676;86;21742;-65
2021/10/23 10:01:43;;;;;;;14.45;8.25;;;;;;;16.79;71.77;101163.09;1628036;86;21137;-64
2021/10/23 10:04:15;;;;;;;14.05;7.80;;;;;;;16.84;71.66;101165.06;1653900;85;21518;-66
2021/10/23 10:06:47;;;;;;;11.57;5.75;;;;;;;16.96;72.00;101157.23;1661657;85;21066;-67
2021/10/23 10:09:16;;;;;;;8.23;4.95;;;;;;;17.06;70.88;101155.78;1656599;85;21165;-65
2021/10/23 10:11:43;;;;;;;12.13;5.42;;;;;;;17.15;69.60;101157.98;1655133;85;21712;-67
2021/10/23 10:14:12;;;;;;;10.95;5.25;;;;;;;17.28;68.71;101154.56;1658750;85;21062;-60
2021/10/23 10:16:44;;;;;;;12.33;5.22;;;;;;;17.44;68.40;101149.13;1655090;84;21105;-58
2021/10/23 10:19:13;;;;;;;11.63;5.22;;;;;;;17.59;68.06;101148.75;1645700;85;21130;-57
2021/10/23 10:21:42;;;;;;;13.03;4.33;;;;;;;17.73;67.56;101150.15;1661612;85;21106;-61
2021/10/23 10:24:33;;;;;;;6.50;3.30;;;;;;;17.85;66.27;101148.55;1656537;85;21072;-57
2021/10/23 10:27:07;;;;;;;;;;;;;;;17.96;64.73;101145.19;1657647;85;21783;-66
2021/10/23 10:29:40;;;;;;;12.80;4.72;;;;;;;18.00;63.06;101150.81;1663188;85;20144;-58
2021/10/23 10:32:24;;;;;;;9.30;4.55;;;;;;;18.03;62.51;101150.69;1624713;86;21920;-66
2021/10/23 10:43:24;;;;;;;19.92;9.13;;;;;;;18.10;63.21;101151.67;1622834;86;21016;-63
2021/10/23 10:45:55;;;;;;;22.90;11.43;;;;;;;18.03;63.25;101145.27;1660538;84;21959;-60
2021/10/23 10:48:34;;;;;;;19.20;9.48;;;;;;;17.94;63.72;101147.12;1675306;83;21096;-60
2021/10/23 10:51:14;;;;;;;18.35;7.58;;;;;;;17.86;63.40;101144.01;1671589;83;21066;-59
2021/10/23 10:53:52;;;;;;;23.07;9.73;;;;;;;17.76;62.19;101144.53;1689670;83;21044;-60
2021/10/23 10:56:21;;;;;;;16.87;8.08;;;;;;;17.74;62.49;101147.83;1625600;83;21461;-59
2021/10/23 10:58:55;;;;;;;15.35;8.73;;;;;;;17.79;62.83;101153.45;1692077;83;21505;-59
2021/10/23 11:08:27;;;;;;;16.35;9.65;;;;;;;17.92;63.76;101149.06;1716249;81;21137;-64
2021/10/23 11:15:07;;;;;;;17.60;8.63;;;;;;;17.91;64.90;101160.88;1695381;83;21100;-62
2021/10/23 11:17:38;;;;;;;19.70;9.58;;;;;;;17.68;64.73;101158.16;1701878;82;21047;-61
2021/10/23 11:20:08;;;;;;;20.32;9.35;;;;;;;17.64;65.30;101157.48;1705741;82;21445;-61
2021/10/23 11:22:35;;;;;;;19.20;8.53;;;;;;;17.62;65.71;101158.05;1698926;82;21008;-62
2021/10/23 11:25:08;;;;;;;19.70;7.87;;;;;;;17.66;66.16;101163.69;1766252;79;20939;-62
2021/10/23 11:27:50;;;;;;;17.40;7.97;;;;;;;17.67;65.65;101161.36;1772944;79;21075;-63
2021/10/23 11:30:31;;;;;;;19.67;8.40;;;;;;;17.65;65.90;101155.16;1778428;79;20998;-61
2021/10/23 11:33:05;;;;;;;16.95;7.62;;;;;;;17.71;66.34;101156.15;1770984;79;21399;-61
2021/10/23 11:35:49;;;;;;;22.58;7.40;;;;;;;17.82;66.29;101158.22;1766931;79;21031;-61
2021/10/23 11:38:23;;;;;;;15.15;7.50;;;;;;;17.87;65.86;101144.40;1779326;79;21493;-61
2021/10/23 11:40:59;;;;;;;11.20;6.97;;;;;;;17.89;65.82;101145.17;1772832;79;21678;-62